createdAt,value
2023-01-29T00:02:59.344Z,42.22
2023-01-29T00:08:05.781Z,33.30
2023-01-29T00:13:12.308Z,45.47
2023-01-29T00:18:19.115Z,54.42
2023-01-29T00:23:25.980Z,33.50
2023-01-29T00:28:32.338Z,49.85
2023-01-29T00:33:39.570Z,36.38
2023-01-29T00:38:56.313Z,40.85
2023-01-29T00:44:22.058Z,35.97
2023-01-29T00:49:28.614Z,40.08
2023-01-29T00:54:35.574Z,39.95
2023-01-29T00:59:41.861Z,54.63
2023-01-29T01:04:48.594Z,40.22
2023-01-29T01:10:12.208Z,45.80
2023-01-29T01:15:18.806Z,55.40
2023-01-29T01:20:26.080Z,47.45
2023-01-29T01:25:32.593Z,48.08
2023-01-29T01:31:43.685Z,77.10
2023-01-29T01:36:50.139Z,76.03
2023-01-29T01:47:05.397Z,69.30
2023-01-29T01:52:12.360Z,50.15
2023-01-29T01:57:26.787Z,71.57
2023-01-29T02:02:54.933Z,73.45
2023-01-29T02:08:20.346Z,62.40
2023-01-29T02:13:27.197Z,72.47
2023-01-29T02:18:39.847Z,60.92
2023-01-29T02:23:55.540Z,71.55
2023-01-29T02:29:29.077Z,59.25
2023-01-29T02:35:08.962Z,49.88
2023-01-29T02:40:38.546Z,64.68
2023-01-29T02:46:12.075Z,41.35
2023-01-29T02:51:35.206Z,55.30
2023-01-29T02:57:25.371Z,42.33
2023-01-29T03:02:47.870Z,59.35
2023-01-29T03:08:00.579Z,48.13
2023-01-29T03:13:39.454Z,41.67
2023-01-29T03:18:53.801Z,43.67
2023-01-29T03:24:20.408Z,37.90
2023-01-29T03:29:47.548Z,44.58
2023-01-29T03:35:02.376Z,45.05
2023-01-29T03:40:16.163Z,32.47
2023-01-29T03:45:52.926Z,35.03
2023-01-29T03:51:16.472Z,33.28
2023-01-29T03:56:44.513Z,26.83
2023-01-29T04:02:12.170Z,29.77
2023-01-29T04:07:26.447Z,24.35
2023-01-29T04:13:25.405Z,42.50
2023-01-29T04:18:35.332Z,29.63
2023-01-29T04:23:51.024Z,39.00
2023-01-29T04:29:21.636Z,42.95
2023-01-29T04:35:03.764Z,27.27
2023-01-29T04:40:42.468Z,31.67
2023-01-29T04:51:57.731Z,29.13
2023-01-29T04:57:31.354Z,32.63
2023-01-29T05:02:46.043Z,33.08
2023-01-29T05:08:07.603Z,31.48
2023-01-29T05:13:24.426Z,27.63
2023-01-29T05:29:52.610Z,26.35
2023-01-29T05:35:10.062Z,34.00
2023-01-29T05:40:22.225Z,21.58
2023-01-29T05:45:40.237Z,33.65
2023-01-29T05:51:02.670Z,28.90
2023-01-29T05:56:14.238Z,31.67
2023-01-29T06:01:26.850Z,34.70
2023-01-29T06:07:00.786Z,30.27
2023-01-29T06:12:14.993Z,26.45
2023-01-29T06:17:55.463Z,33.70
2023-01-29T06:23:10.497Z,22.33
2023-01-29T06:28:27.590Z,31.45
2023-01-29T06:33:59.877Z,42.08
2023-01-29T06:39:17.043Z,34.10
2023-01-29T06:49:55.199Z,27.67
2023-01-29T06:55:18.957Z,37.70
2023-01-29T07:00:42.664Z,31.63
2023-01-29T07:06:02.790Z,35.63
2023-01-29T07:16:58.845Z,35.45
2023-01-29T07:22:20.402Z,33.47
2023-01-29T07:27:32.590Z,33.03
2023-01-29T07:32:42.260Z,29.75
2023-01-29T07:38:01.309Z,38.95
2023-01-29T07:43:14.903Z,46.88
2023-01-29T07:48:43.778Z,38.90
2023-01-29T07:53:57.839Z,35.55
2023-01-29T07:59:29.076Z,32.65
2023-01-29T08:04:53.965Z,39.28
2023-01-29T08:10:07.778Z,41.13
2023-01-29T08:15:21.892Z,44.05
2023-01-29T08:20:32.235Z,40.22
2023-01-29T08:25:46.123Z,49.78
2023-01-29T08:30:58.702Z,31.17
2023-01-29T08:36:17.228Z,39.50
2023-01-29T08:47:06.491Z,40.45
2023-01-29T08:52:19.180Z,45.00
2023-01-29T08:57:34.688Z,35.90
2023-01-29T09:02:45.224Z,35.63
2023-01-29T09:07:59.901Z,39.75
2023-01-29T09:13:14.349Z,35.58
2023-01-29T09:18:26.436Z,44.08
2023-01-29T09:23:44.328Z,35.35
2023-01-29T09:29:05.027Z,41.85
2023-01-29T09:34:16.049Z,41.28
2023-01-29T09:39:26.021Z,39.97
2023-01-29T09:44:50.800Z,34.95
2023-01-29T09:50:08.985Z,49.03
2023-01-29T09:55:41.079Z,43.88
2023-01-29T10:01:07.810Z,49.35
2023-01-29T10:06:31.099Z,39.47
2023-01-29T10:12:18.863Z,33.38
2023-01-29T10:17:54.531Z,33.40
2023-01-29T10:23:34.644Z,33.17
2023-01-29T10:29:15.978Z,31.67
2023-01-29T10:34:47.950Z,37.60
2023-01-29T10:39:56.384Z,30.35
2023-01-29T10:45:33.013Z,39.67
2023-01-29T10:50:49.937Z,38.25
2023-01-29T11:02:05.680Z,54.85
2023-01-29T11:07:22.907Z,62.88
2023-01-29T11:12:35.351Z,63.78
2023-01-29T11:17:43.679Z,55.05
2023-01-29T11:22:59.295Z,56.67
2023-01-29T11:28:14.272Z,53.00
2023-01-29T11:33:27.170Z,62.70
2023-01-29T11:44:56.601Z,67.47
2023-01-29T11:50:09.321Z,75.93
2023-01-29T11:55:49.727Z,63.95
2023-01-29T12:12:43.281Z,64.55
2023-01-29T12:18:16.439Z,65.43
2023-01-29T12:31:05.199Z,64.68
2023-01-29T12:36:39.185Z,71.70
2023-01-29T12:42:47.027Z,75.70
2023-01-29T12:48:26.475Z,67.97
2023-01-29T12:53:46.307Z,67.47
2023-01-29T12:59:05.146Z,68.45
2023-01-29T13:04:43.436Z,64.28
2023-01-29T13:10:10.155Z,63.10
2023-01-29T13:15:34.446Z,71.30
2023-01-29T13:21:05.482Z,61.97
2023-01-29T13:26:31.981Z,53.85
2023-01-29T13:31:51.394Z,61.13
2023-01-29T13:37:12.997Z,73.18
2023-01-29T13:42:44.402Z,64.13
2023-01-29T13:48:16.066Z,80.55
2023-01-29T13:54:03.650Z,62.20
2023-01-29T13:59:43.465Z,61.72
2023-01-29T14:05:22.185Z,75.13
2023-01-29T14:10:40.026Z,64.20
2023-01-29T14:16:13.683Z,74.82
2023-01-29T14:22:08.386Z,70.07
2023-01-29T14:27:46.024Z,47.85
2023-01-29T14:33:09.446Z,56.47
2023-01-29T14:38:28.136Z,60.75
2023-01-29T14:43:51.740Z,73.38
2023-01-29T14:49:05.757Z,44.10
2023-01-29T14:54:41.016Z,43.25
2023-01-29T15:00:08.543Z,61.88
2023-01-29T15:05:41.889Z,295.05
2023-01-29T15:11:15.002Z,287.77
2023-01-29T15:17:20.427Z,186.82
2023-01-29T15:22:37.879Z,177.50
2023-01-29T15:27:54.415Z,159.23
2023-01-29T15:33:12.070Z,162.30
2023-01-29T15:38:34.094Z,110.07
2023-01-29T15:43:49.442Z,124.43
2023-01-29T15:49:00.251Z,122.72
2023-01-29T15:54:16.393Z,101.70
2023-01-29T15:59:26.769Z,58.50
2023-01-29T16:04:33.690Z,84.13
2023-01-29T16:09:47.266Z,82.95
2023-01-29T16:14:55.495Z,103.35
2023-01-29T16:20:08.376Z,123.10
2023-01-29T16:25:17.627Z,157.50
2023-01-29T16:30:29.531Z,144.27
2023-01-29T16:35:37.691Z,102.18
2023-01-29T16:41:07.604Z,97.05
2023-01-29T16:46:35.241Z,128.75
2023-01-29T16:51:41.992Z,76.72
2023-01-29T16:56:49.568Z,114.60
2023-01-29T17:02:17.840Z,85.72
2023-01-29T17:07:23.935Z,86.72
2023-01-29T17:12:31.683Z,83.00
2023-01-29T17:17:38.650Z,62.85
2023-01-29T17:22:44.374Z,53.08
2023-01-29T17:27:53.262Z,65.30
2023-01-29T17:32:59.582Z,50.70
2023-01-29T17:38:09.404Z,56.53
2023-01-29T17:43:19.822Z,50.65
2023-01-29T17:48:29.377Z,63.00
2023-01-29T17:53:47.680Z,50.30
2023-01-29T17:58:59.815Z,56.55
2023-01-29T18:04:09.128Z,74.15
2023-01-29T18:09:21.737Z,55.53
2023-01-29T18:14:27.420Z,74.00
2023-01-29T18:19:33.877Z,84.70
2023-01-29T18:29:44.383Z,73.75
2023-01-29T18:34:50.175Z,96.03
2023-01-29T18:39:56.396Z,77.13
2023-01-29T18:45:02.388Z,73.55
2023-01-29T18:50:09.451Z,76.68
2023-01-29T18:55:15.609Z,63.40
2023-01-29T19:05:27.293Z,73.80
2023-01-29T19:10:33.289Z,76.20
2023-01-29T19:15:38.891Z,64.47
2023-01-29T19:20:44.547Z,71.80
2023-01-29T19:25:50.522Z,78.97
2023-01-29T19:30:59.674Z,76.55
2023-01-29T19:36:06.481Z,80.18
2023-01-29T19:41:11.974Z,77.70
2023-01-29T19:46:17.828Z,89.97
2023-01-29T19:51:24.743Z,92.63
2023-01-29T19:56:30.296Z,115.63
2023-01-29T20:01:36.340Z,83.17
2023-01-29T20:06:42.299Z,101.53
2023-01-29T20:11:47.756Z,128.02
2023-01-29T20:16:53.914Z,103.83
2023-01-29T20:22:03.589Z,95.85
2023-01-29T20:27:09.817Z,84.20
2023-01-29T20:32:16.085Z,70.95
2023-01-29T20:42:27.663Z,67.63
2023-01-29T20:47:33.354Z,81.88
2023-01-29T20:52:40.185Z,67.27
2023-01-29T20:57:46.118Z,77.85
2023-01-29T21:03:12.147Z,83.00
2023-01-29T21:13:23.048Z,81.55
2023-01-29T21:18:29.187Z,81.33
2023-01-29T21:23:34.759Z,97.30
2023-01-29T21:28:40.397Z,80.40
2023-01-29T21:33:47.624Z,79.00
2023-01-29T21:38:53.737Z,79.28
2023-01-29T21:44:36.206Z,86.65
2023-01-29T21:49:43.717Z,77.57
2023-01-29T21:54:50.467Z,103.60
2023-01-29T21:59:57.193Z,91.53
2023-01-29T22:05:18.232Z,88.65
2023-01-29T22:10:25.273Z,84.90
2023-01-29T22:15:31.632Z,55.88
2023-01-29T22:20:38.165Z,86.25
2023-01-29T22:25:45.030Z,69.05
2023-01-29T22:30:50.751Z,62.53
2023-01-29T22:35:57.367Z,64.90
2023-01-29T22:41:03.191Z,72.03
2023-01-29T22:46:13.179Z,51.47
2023-01-29T22:51:19.179Z,68.38
2023-01-29T22:56:27.782Z,84.95
2023-01-29T23:01:34.585Z,61.95
2023-01-29T23:06:40.822Z,73.18
2023-01-29T23:11:46.465Z,55.17
2023-01-29T23:16:52.676Z,47.13
2023-01-29T23:21:58.381Z,60.10
2023-01-29T23:27:16.687Z,59.03
2023-01-29T23:32:23.479Z,39.78
2023-01-29T23:37:29.813Z,47.22
2023-01-29T23:42:35.810Z,73.25
2023-01-29T23:47:41.553Z,51.15
2023-01-29T23:52:47.369Z,69.13
2023-01-29T23:57:53.208Z,54.55
